Time;durP1;ratioP1;P1;durP2;ratioP2;P2;SDS_P1;SDS_P2;PMS_P1;PMS_P2;Temp;Humidity;BMP_temperature;BMP_pressure;BME280_temperature;BME280_humidity;BME280_pressure;Samples;Min_cycle;Max_cycle;Signal;HPM_P1;HPM_P2
2020/12/19 00:00:55;;;;;;;;;;;27.20;40.00;;;;;;5035495;28;19927;-63
2020/12/19 00:03:20;;;;;;;;;;;27.20;40.00;;;;;;5035472;28;19913;-60
2020/12/19 00:05:46;;;;;;;;;;;27.20;40.00;;;;;;5035605;28;19909;-60
2020/12/19 00:08:11;;;;;;;;;;;27.30;40.00;;;;;;5035258;28;19971;-61
2020/12/19 00:10:37;;;;;;;;;;;27.20;40.00;;;;;;5035569;28;20333;-60
2020/12/19 00:13:02;;;;;;;;;;;27.20;40.00;;;;;;5034699;28;20265;-60
2020/12/19 00:15:28;;;;;;;;;;;27.20;40.00;;;;;;5035650;28;19916;-61
2020/12/19 00:17:53;;;;;;;;;;;27.20;40.00;;;;;;5035354;28;19913;-61
2020/12/19 00:20:19;;;;;;;;;;;27.20;40.00;;;;;;5035585;28;19920;-62
2020/12/19 00:22:44;;;;;;;;;;;27.20;40.00;;;;;;5035140;28;19913;-61
2020/12/19 00:25:10;;;;;;;;;;;27.20;40.00;;;;;;5035039;28;20015;-62
2020/12/19 00:27:35;;;;;;;;;;;27.20;40.10;;;;;;5034902;28;19920;-62
2020/12/19 00:30:01;;;;;;;;;;;27.20;40.10;;;;;;5035162;28;20118;-62
2020/12/19 00:32:26;;;;;;;;;;;27.10;40.10;;;;;;5035468;28;19909;-60
2020/12/19 00:34:52;;;;;;;;;;;27.20;40.00;;;;;;5034773;28;20011;-62
2020/12/19 00:37:17;;;;;;;;;;;27.20;40.00;;;;;;5033990;28;19909;-62
2020/12/19 00:39:42;;;;;;;;;;;27.30;39.90;;;;;;5034780;28;19921;-62
2020/12/19 00:42:08;;;;;;;;;;;27.30;39.90;;;;;;5034589;28;19936;-61
2020/12/19 00:44:34;;;;;;;;;;;27.30;39.90;;;;;;5034976;28;19924;-62
2020/12/19 00:46:59;;;;;;;;;;;27.30;39.90;;;;;;5034833;28;19919;-62
2020/12/19 00:49:25;;;;;;;;;;;27.30;39.80;;;;;;5034969;28;19913;-62
2020/12/19 00:51:50;;;;;;;;;;;27.20;40.00;;;;;;5034791;28;19914;-61
2020/12/19 00:54:16;;;;;;;;;;;27.20;40.00;;;;;;5034350;28;19913;-61
2020/12/19 00:56:41;;;;;;;;;;;27.20;40.00;;;;;;5034946;28;20371;-61
2020/12/19 00:59:06;;;;;;;;;;;27.20;40.60;;;;;;5034208;28;19921;-61
2020/12/19 01:01:32;;;;;;;;;;;27.20;40.00;;;;;;5034531;28;19910;-60
2020/12/19 01:04:00;;;;;;;;;;;27.20;40.00;;;;;;5034148;28;19917;-61
2020/12/19 01:06:26;;;;;;;;;;;27.20;40.00;;;;;;5034260;28;20363;-60
2020/12/19 01:08:52;;;;;;;;;;;27.20;40.00;;;;;;5034177;28;19920;-61
2020/12/19 01:11:18;;;;;;;;;;;27.20;40.00;;;;;;5034234;28;19924;-61
2020/12/19 01:13:44;;;;;;;;;;;27.20;40.00;;;;;;5034014;28;19921;-60
2020/12/19 01:16:19;;;;;;;;;;;27.10;40.10;;;;;;5034616;28;19940;-62
2020/12/19 01:18:45;;;;;;;;;;;27.10;40.00;;;;;;5034265;28;19928;-61
2020/12/19 01:21:14;;;;;;;;;;;27.20;40.00;;;;;;5034242;28;19917;-62
2020/12/19 01:23:40;;;;;;;;;;;27.20;40.00;;;;;;5033558;28;19920;-62
2020/12/19 01:26:06;;;;;;;;;;;27.30;39.90;;;;;;5028587;28;20005;-60
2020/12/19 01:28:31;;;;;;;;;;;27.20;40.00;;;;;;5021352;28;19913;-60
2020/12/19 01:31:00;;;;;;;;;;;27.20;40.60;;;;;;5034286;28;19909;-61
2020/12/19 01:33:26;;;;;;;;;;;27.20;40.00;;;;;;5033666;28;19939;-60
2020/12/19 01:35:51;;;;;;;;;;;27.20;40.00;;;;;;5033744;28;19967;-60
2020/12/19 01:38:16;;;;;;;;;;;27.20;39.80;;;;;;5033774;28;20290;-60
2020/12/19 01:40:47;;;;;;;;;;;27.20;40.40;;;;;;5033725;28;19921;-60
2020/12/19 01:43:12;;;;;;;;;;;27.30;39.80;;;;;;5033543;28;20383;-61
2020/12/19 01:45:37;;;;;;;;;;;27.20;39.70;;;;;;5033771;28;19999;-61
2020/12/19 01:48:04;;;;;;;;;;;27.20;39.80;;;;;;5033521;28;20307;-61
2020/12/19 01:50:29;;;;;;;;;;;27.20;39.80;;;;;;5065236;28;19913;-61
2020/12/19 01:52:54;;;;;;;;;;;27.20;40.00;;;;;;5032463;28;20325;-61
2020/12/19 01:55:20;;;;;;;;;;;27.20;40.00;;;;;;5032407;28;19951;-60
2020/12/19 01:57:45;;;;;;;;;;;27.20;40.00;;;;;;5033511;28;19915;-60
2020/12/19 02:00:11;;;;;;;;;;;27.20;40.00;;;;;;5033407;28;20283;-61
2020/12/19 02:02:36;;;;;;;;;;;27.20;40.00;;;;;;5033550;28;19913;-60
2020/12/19 02:05:02;;;;;;;;;;;27.10;39.90;;;;;;5032267;28;20108;-61
2020/12/19 02:07:27;;;;;;;;;;;27.20;40.00;;;;;;5033297;28;19909;-60
2020/12/19 02:09:53;;;;;;;;;;;27.20;39.90;;;;;;5031916;28;19945;-61
2020/12/19 02:12:18;;;;;;;;;;;27.20;39.80;;;;;;5065030;28;19927;-61
2020/12/19 02:14:44;;;;;;;;;;;27.20;39.90;;;;;;5033437;28;19975;-60
2020/12/19 02:17:10;;;;;;;;;;;27.20;39.70;;;;;;5033281;28;19920;-61
2020/12/19 02:19:35;;;;;;;;;;;27.20;39.80;;;;;;5033156;28;19921;-60
2020/12/19 02:22:01;;;;;;;;;;;27.20;39.70;;;;;;5033200;28;20024;-60
2020/12/19 02:24:27;;;;;;;;;;;27.20;39.80;;;;;;5033373;28;19920;-61
2020/12/19 02:26:53;;;;;;;;;;;27.20;39.90;;;;;;5021293;28;20279;-61
2020/12/19 02:29:19;;;;;;;;;;;27.20;39.90;;;;;;5026182;28;19913;-61
2020/12/19 02:31:44;;;;;;;;;;;27.20;40.00;;;;;;5033086;28;19913;-61
2020/12/19 02:34:10;;;;;;;;;;;27.20;40.00;;;;;;5032610;28;19913;-60
2020/12/19 02:36:36;;;;;;;;;;;27.20;39.70;;;;;;5032705;28;19931;-60
2020/12/19 02:39:01;;;;;;;;;;;27.20;39.70;;;;;;5032735;28;20048;-60
2020/12/19 02:41:27;;;;;;;;;;;27.20;39.70;;;;;;5033034;28;19913;-60
2020/12/19 02:43:53;;;;;;;;;;;27.20;39.70;;;;;;5033236;28;19956;-61
2020/12/19 02:46:18;;;;;;;;;;;27.20;39.80;;;;;;5032220;28;20291;-61
2020/12/19 02:48:44;;;;;;;;;;;27.20;39.80;;;;;;5032709;28;19924;-60
2020/12/19 02:51:09;;;;;;;;;;;27.20;39.70;;;;;;5033047;28;19913;-62
2020/12/19 02:53:35;;;;;;;;;;;27.20;39.80;;;;;;5032457;28;19923;-62
2020/12/19 02:56:00;;;;;;;;;;;27.20;39.80;;;;;;5032882;28;20359;-62
2020/12/19 02:58:26;;;;;;;;;;;27.20;40.40;;;;;;5032441;28;19913;-62
2020/12/19 03:00:51;;;;;;;;;;;27.20;39.80;;;;;;5033115;28;19960;-62
2020/12/19 03:03:17;;;;;;;;;;;27.20;39.70;;;;;;5036647;28;19913;-60
2020/12/19 03:05:42;;;;;;;;;;;27.20;39.70;;;;;;5036490;28;20379;-61
2020/12/19 03:08:07;;;;;;;;;;;27.20;39.70;;;;;;5036044;28;19917;-61
2020/12/19 03:10:33;;;;;;;;;;;27.20;39.60;;;;;;5036637;28;20383;-60
2020/12/19 03:12:58;;;;;;;;;;;27.30;39.60;;;;;;5036331;28;19920;-62
2020/12/19 03:15:24;;;;;;;;;;;27.20;39.60;;;;;;5036882;28;20013;-60
2020/12/19 03:17:49;;;;;;;;;;;27.20;39.60;;;;;;5036267;28;19913;-60
2020/12/19 03:20:15;;;;;;;;;;;27.20;39.70;;;;;;5036149;28;19925;-60
2020/12/19 03:22:40;;;;;;;;;;;27.20;39.70;;;;;;5036390;28;19909;-61
2020/12/19 03:25:06;;;;;;;;;;;27.30;39.60;;;;;;5036401;28;20417;-60
2020/12/19 03:27:31;;;;;;;;;;;27.20;39.60;;;;;;5036236;28;19909;-61
2020/12/19 03:29:57;;;;;;;;;;;27.20;39.60;;;;;;5036227;28;19952;-60
2020/12/19 03:32:22;;;;;;;;;;;27.20;39.70;;;;;;5036349;28;20528;-61
2020/12/19 03:34:48;;;;;;;;;;;27.20;39.60;;;;;;5035824;28;19921;-62
2020/12/19 03:37:13;;;;;;;;;;;27.20;39.60;;;;;;5036156;28;19925;-60
2020/12/19 03:39:39;;;;;;;;;;;27.20;39.60;;;;;;5036136;28;20267;-61
2020/12/19 03:42:05;;;;;;;;;;;27.20;39.80;;;;;;5035786;28;19917;-62
2020/12/19 03:44:30;;;;;;;;;;;27.20;39.60;;;;;;5036050;28;19927;-62
2020/12/19 03:46:55;;;;;;;;;;;27.20;39.70;;;;;;5035943;28;20318;-62
2020/12/19 03:49:21;;;;;;;;;;;27.20;39.60;;;;;;5035653;28;19921;-62
2020/12/19 03:51:46;;;;;;;;;;;27.20;39.70;;;;;;5035599;28;19920;-62
2020/12/19 03:54:12;;;;;;;;;;;27.20;39.70;;;;;;5036154;28;19913;-61
2020/12/19 03:56:37;;;;;;;;;;;27.20;39.50;;;;;;5035760;28;19909;-62
2020/12/19 03:59:03;;;;;;;;;;;27.20;39.50;;;;;;5035601;28;19912;-62
2020/12/19 04:01:28;;;;;;;;;;;27.20;39.50;;;;;;5035992;28;19917;-62
2020/12/19 04:03:54;;;;;;;;;;;27.20;39.70;;;;;;5035667;28;19921;-61
2020/12/19 04:06:19;;;;;;;;;;;27.20;39.70;;;;;;5035621;28;19913;-60
2020/12/19 04:08:44;;;;;;;;;;;27.20;39.70;;;;;;5035585;28;19917;-62
2020/12/19 04:11:10;;;;;;;;;;;27.20;39.70;;;;;;5035395;28;19909;-61
2020/12/19 04:13:35;;;;;;;;;;;27.20;39.70;;;;;;5034505;28;19921;-61
2020/12/19 04:16:01;;;;;;;;;;;27.20;39.70;;;;;;5035165;28;19913;-61
2020/12/19 04:18:26;;;;;;;;;;;27.20;39.70;;;;;;5035374;28;19909;-61
2020/12/19 04:20:52;;;;;;;;;;;27.10;39.60;;;;;;5035329;28;19917;-62
2020/12/19 04:23:18;;;;;;;;;;;27.20;39.60;;;;;;5035110;28;19927;-62
2020/12/19 04:25:43;;;;;;;;;;;27.20;39.60;;;;;;5035600;28;19955;-61
2020/12/19 04:28:09;;;;;;;;;;;27.20;39.70;;;;;;5034977;28;20366;-62
2020/12/19 04:30:34;;;;;;;;;;;27.10;39.70;;;;;;5035174;28;19917;-62
2020/12/19 04:33:00;;;;;;;;;;;27.20;39.70;;;;;;5035188;28;19966;-61
2020/12/19 04:35:25;;;;;;;;;;;27.20;39.60;;;;;;5018293;28;20352;-62
2020/12/19 04:37:51;;;;;;;;;;;27.20;39.60;;;;;;5026030;28;19966;-60
2020/12/19 04:40:16;;;;;;;;;;;27.20;39.60;;;;;;5035224;28;19917;-62
2020/12/19 04:42:42;;;;;;;;;;;27.20;39.60;;;;;;5034138;28;20252;-62
2020/12/19 04:45:07;;;;;;;;;;;27.20;39.70;;;;;;5035237;28;19909;-62
2020/12/19 04:47:33;;;;;;;;;;;27.20;39.60;;;;;;5034435;28;19913;-62
2020/12/19 04:49:59;;;;;;;;;;;27.20;39.50;;;;;;5034591;28;20007;-62
2020/12/19 04:52:25;;;;;;;;;;;27.20;39.60;;;;;;5034763;28;20268;-62
2020/12/19 04:54:50;;;;;;;;;;;27.20;39.50;;;;;;5033974;28;19924;-62
2020/12/19 04:57:17;;;;;;;;;;;27.20;39.50;;;;;;5033403;28;19917;-62
2020/12/19 04:59:43;;;;;;;;;;;27.20;39.50;;;;;;5034868;28;19932;-62
2020/12/19 05:02:08;;;;;;;;;;;27.20;39.60;;;;;;5034477;28;19909;-62
2020/12/19 05:04:36;;;;;;;;;;;27.20;39.60;;;;;;5034574;28;19975;-62
2020/12/19 05:07:02;;;;;;;;;;;27.10;39.60;;;;;;5034308;28;20363;-62
2020/12/19 05:09:27;;;;;;;;;;;27.20;39.60;;;;;;5034497;28;19917;-62
2020/12/19 05:11:53;;;;;;;;;;;27.10;39.50;;;;;;5066140;28;19921;-63
2020/12/19 05:14:19;;;;;;;;;;;27.20;39.60;;;;;;5034177;28;20372;-62
2020/12/19 05:16:45;;;;;;;;;;;27.10;39.60;;;;;;5066461;28;19921;-62
2020/12/19 05:19:11;;;;;;;;;;;27.10;39.60;;;;;;5034010;28;19971;-62
2020/12/19 05:21:43;;;;;;;;;;;27.20;39.70;;;;;;5033748;28;19952;-62
2020/12/19 05:24:10;;;;;;;;;;;27.20;39.50;;;;;;5033869;28;19932;-61
2020/12/19 05:26:36;;;;;;;;;;;27.10;39.60;;;;;;5034220;28;19914;-62
2020/12/19 05:29:03;;;;;;;;;;;27.10;39.80;;;;;;5032863;28;20355;-60
2020/12/19 05:31:28;;;;;;;;;;;27.10;39.70;;;;;;5066087;28;19908;-60
2020/12/19 05:33:53;;;;;;;;;;;27.10;39.70;;;;;;5033578;28;19917;-62
2020/12/19 05:36:20;;;;;;;;;;;27.10;39.60;;;;;;5032195;28;19915;-62
2020/12/19 05:38:46;;;;;;;;;;;27.10;39.60;;;;;;5033916;28;19917;-60
2020/12/19 05:41:12;;;;;;;;;;;27.10;39.60;;;;;;5033662;28;19917;-61
2020/12/19 05:43:49;;;;;;;;;;;27.20;39.60;;;;;;5033677;28;19913;-60
2020/12/19 05:46:30;;;;;;;;;;;27.20;39.70;;;;;;5033686;28;20367;-61
2020/12/19 05:48:56;;;;;;;;;;;27.10;39.60;;;;;;5033482;28;19913;-61
2020/12/19 05:51:21;;;;;;;;;;;27.10;40.20;;;;;;5033207;28;19916;-63
2020/12/19 05:53:48;;;;;;;;;;;27.10;39.60;;;;;;5033537;28;19955;-61
2020/12/19 05:56:14;;;;;;;;;;;27.20;39.50;;;;;;5065047;28;20024;-61
2020/12/19 05:58:39;;;;;;;;;;;27.20;39.50;;;;;;5033699;28;20303;-61
2020/12/19 06:01:05;;;;;;;;;;;27.20;39.40;;;;;;5033047;28;19921;-60
2020/12/19 06:03:30;;;;;;;;;;;27.20;39.50;;;;;;5032343;28;19920;-60
2020/12/19 06:05:57;;;;;;;;;;;27.20;39.50;;;;;;5033691;28;19920;-62
2020/12/19 06:08:22;;;;;;;;;;;27.20;39.60;;;;;;5065273;28;20011;-62
2020/12/19 06:10:48;;;;;;;;;;;27.20;39.60;;;;;;5032168;28;19996;-62
2020/12/19 06:13:14;;;;;;;;;;;27.20;39.50;;;;;;5032689;28;19935;-62
2020/12/19 06:15:40;;;;;;;;;;;27.20;39.50;;;;;;5032053;28;19913;-60
2020/12/19 06:18:13;;;;;;;;;;;27.20;39.60;;;;;;5032872;28;19913;-63
2020/12/19 06:20:39;;;;;;;;;;;27.20;39.50;;;;;;5031877;28;20019;-61
2020/12/19 06:23:12;;;;;;;;;;;27.20;39.50;;;;;;5033153;28;20016;-60
2020/12/19 06:25:44;;;;;;;;;;;27.20;39.50;;;;;;5015094;28;19917;-61
2020/12/19 06:28:10;;;;;;;;;;;27.10;39.50;;;;;;5033015;28;20285;-61
2020/12/19 06:30:36;;;;;;;;;;;27.20;39.50;;;;;;5033009;28;19956;-61
2020/12/19 06:33:11;;;;;;;;;;;27.10;39.50;;;;;;5033060;28;20000;-61
2020/12/19 06:35:36;;;;;;;;;;;27.20;39.60;;;;;;5033118;28;19916;-61
2020/12/19 06:38:02;;;;;;;;;;;27.20;39.60;;;;;;5032844;28;19917;-62
2020/12/19 06:40:27;;;;;;;;;;;27.10;39.60;;;;;;5032528;28;20350;-62
2020/12/19 06:43:08;;;;;;;;;;;27.10;39.60;;;;;;5031285;28;19909;-62
2020/12/19 06:45:34;;;;;;;;;;;27.10;39.60;;;;;;5032794;28;20012;-62
2020/12/19 06:47:59;;;;;;;;;;;27.10;39.70;;;;;;5032504;28;19955;-62
2020/12/19 06:50:25;;;;;;;;;;;27.10;39.50;;;;;;5033109;28;19909;-63
2020/12/19 06:52:51;;;;;;;;;;;27.10;39.60;;;;;;5064511;28;20316;-62
2020/12/19 06:55:19;;;;;;;;;;;27.10;39.60;;;;;;5032092;28;20032;-62
2020/12/19 06:57:55;;;;;;;;;;;27.10;39.60;;;;;;5032814;28;19948;-61
2020/12/19 07:00:21;;;;;;;;;;;27.10;39.60;;;;;;5032741;28;20287;-60
2020/12/19 07:02:50;;;;;;;;;;;27.10;39.40;;;;;;5032415;28;19909;-60
2020/12/19 07:05:19;;;;;;;;;;;27.10;39.60;;;;;;5032478;28;20382;-60
2020/12/19 07:07:45;;;;;;;;;;;27.10;39.50;;;;;;5032424;28;19921;-60
2020/12/19 07:10:10;;;;;;;;;;;27.20;39.50;;;;;;5032299;28;20420;-60
2020/12/19 07:12:37;;;;;;;;;;;27.20;39.30;;;;;;5032007;28;19921;-60
2020/12/19 07:15:04;;;;;;;;;;;27.10;39.50;;;;;;5032266;28;19913;-60
2020/12/19 07:17:29;;;;;;;;;;;27.10;39.50;;;;;;5032511;28;20363;-61
2020/12/19 07:19:58;;;;;;;;;;;27.10;39.50;;;;;;5031102;28;19928;-61
2020/12/19 07:22:24;;;;;;;;;;;27.20;39.50;;;;;;5032213;28;20348;-61
2020/12/19 07:24:50;;;;;;;;;;;27.20;39.40;;;;;;5032419;28;19920;-61
2020/12/19 07:27:16;;;;;;;;;;;27.20;39.50;;;;;;5032003;28;20299;-61
2020/12/19 07:29:41;;;;;;;;;;;27.20;39.40;;;;;;5032635;28;19928;-62
2020/12/19 07:32:07;;;;;;;;;;;27.20;39.30;;;;;;5032663;28;20004;-60
2020/12/19 07:34:32;;;;;;;;;;;27.20;39.40;;;;;;5031667;28;19909;-62
2020/12/19 07:36:57;;;;;;;;;;;27.20;39.30;;;;;;5032356;28;19917;-61
2020/12/19 07:39:23;;;;;;;;;;;27.20;39.50;;;;;;5031923;28;19921;-60
2020/12/19 07:41:59;;;;;;;;;;;27.10;39.40;;;;;;5032223;28;19920;-62
2020/12/19 07:44:24;;;;;;;;;;;27.20;39.40;;;;;;5032300;28;19997;-62
2020/12/19 07:46:54;;;;;;;;;;;27.10;39.50;;;;;;5032568;28;19963;-62
2020/12/19 07:49:28;;;;;;;;;;;27.10;39.50;;;;;;5035963;28;19920;-60
2020/12/19 07:52:13;;;;;;;;;;;27.10;39.40;;;;;;5035962;28;19913;-62
2020/12/19 07:54:39;;;;;;;;;;;27.20;39.50;;;;;;5035652;28;19909;-62
2020/12/19 07:57:04;;;;;;;;;;;27.20;39.50;;;;;;5035814;28;19948;-62
2020/12/19 07:59:30;;;;;;;;;;;27.20;39.50;;;;;;5035685;28;19913;-63
2020/12/19 08:01:55;;;;;;;;;;;27.10;39.40;;;;;;5035636;28;20282;-62
2020/12/19 08:04:21;;;;;;;;;;;27.00;39.60;;;;;;5035455;28;19909;-62
2020/12/19 08:06:47;;;;;;;;;;;27.00;39.70;;;;;;5035841;28;20413;-62
2020/12/19 08:09:22;;;;;;;;;;;27.00;39.80;;;;;;5035048;28;20359;-63
2020/12/19 08:11:48;;;;;;;;;;;27.00;39.60;;;;;;5035233;28;20356;-62
2020/12/19 08:14:14;;;;;;;;;;;27.00;39.60;;;;;;5035240;28;19917;-62
2020/12/19 08:16:39;;;;;;;;;;;27.10;39.50;;;;;;5035682;28;19968;-62
2020/12/19 08:19:05;;;;;;;;;;;27.10;39.40;;;;;;5034864;28;19913;-63
2020/12/19 08:21:30;;;;;;;;;;;27.10;39.60;;;;;;5035617;28;19924;-63
2020/12/19 08:23:56;;;;;;;;;;;27.10;39.50;;;;;;5033950;28;20433;-63
2020/12/19 08:26:21;;;;;;;;;;;27.10;39.60;;;;;;5059842;28;19910;-63
2020/12/19 08:28:59;;;;;;;;;;;27.10;39.60;;;;;;5024097;28;19913;-61
2020/12/19 08:31:25;;;;;;;;;;;27.10;39.40;;;;;;5035414;28;19917;-62
2020/12/19 08:33:50;;;;;;;;;;;27.10;39.40;;;;;;5031291;28;20315;-62
2020/12/19 08:36:16;;;;;;;;;;;27.10;39.40;;;;;;5014284;28;19996;-62
2020/12/19 08:38:41;;;;;;;;;;;27.10;39.40;;;;;;5030442;28;20412;-61
2020/12/19 08:41:16;;;;;;;;;;;27.10;39.40;;;;;;5035070;28;19964;-62
2020/12/19 08:43:42;;;;;;;;;;;27.10;39.40;;;;;;5034555;28;20382;-62
2020/12/19 08:46:08;;;;;;;;;;;27.10;39.40;;;;;;5034962;28;20012;-62
2020/12/19 08:48:34;;;;;;;;;;;27.10;39.40;;;;;;5035030;28;19959;-62
2020/12/19 08:51:05;;;;;;;;;;;27.10;39.40;;;;;;5035190;28;19993;-62
2020/12/19 08:53:31;;;;;;;;;;;27.10;39.50;;;;;;5034675;28;19913;-62
2020/12/19 08:55:56;;;;;;;;;;;27.10;39.40;;;;;;5034878;28;19913;-62
2020/12/19 08:58:25;;;;;;;;;;;27.10;39.40;;;;;;5032050;28;19913;-62
2020/12/19 09:00:51;;;;;;;;;;;27.10;39.40;;;;;;5034297;28;19959;-62
2020/12/19 09:03:23;;;;;;;;;;;27.10;39.60;;;;;;5034606;28;19996;-62
2020/12/19 09:05:56;;;;;;;;;;;27.10;39.40;;;;;;5034100;28;19913;-62
2020/12/19 09:08:22;;;;;;;;;;;27.00;39.40;;;;;;5034186;28;20323;-62
2020/12/19 09:10:47;;;;;;;;;;;27.10;39.40;;;;;;5066156;28;19990;-62
2020/12/19 09:13:14;;;;;;;;;;;27.00;39.40;;;;;;5033895;28;19920;-62
2020/12/19 09:15:43;;;;;;;;;;;27.10;39.40;;;;;;5034099;28;20327;-62
2020/12/19 09:18:12;;;;;;;;;;;27.10;39.40;;;;;;5034318;28;19919;-62
2020/12/19 09:20:37;;;;;;;;;;;27.10;39.40;;;;;;5033742;28;19966;-62
2020/12/19 09:23:03;;;;;;;;;;;27.10;39.40;;;;;;5034225;28;19909;-62
2020/12/19 09:25:31;;;;;;;;;;;27.20;39.30;;;;;;5033408;28;22142;-62
2020/12/19 09:27:56;;;;;;;;;;;27.10;39.30;;;;;;5033858;28;19967;-62
2020/12/19 09:30:21;;;;;;;;;;;27.10;39.40;;;;;;5034400;28;19916;-62
2020/12/19 09:32:47;;;;;;;;;;;27.10;39.40;;;;;;5033855;28;20397;-62
2020/12/19 09:35:12;;;;;;;;;;;27.20;39.30;;;;;;5033836;28;19917;-62
2020/12/19 09:37:38;;;;;;;;;;;27.20;39.20;;;;;;5033854;28;19919;-62
2020/12/19 09:40:03;;;;;;;;;;;27.20;39.30;;;;;;5034125;28;19975;-62
2020/12/19 09:42:29;;;;;;;;;;;27.20;39.30;;;;;;5033722;28;19959;-62
2020/12/19 09:44:54;;;;;;;;;;;27.20;39.30;;;;;;5033726;28;19917;-62
2020/12/19 09:47:20;;;;;;;;;;;27.20;39.20;;;;;;5033413;28;19988;-62
2020/12/19 09:49:45;;;;;;;;;;;27.20;39.30;;;;;;5033521;28;19913;-62
2020/12/19 09:52:10;;;;;;;;;;;27.10;39.30;;;;;;5033558;28;20378;-62
2020/12/19 09:54:36;;;;;;;;;;;27.20;39.30;;;;;;5033891;28;19913;-62
2020/12/19 09:57:01;;;;;;;;;;;27.10;39.30;;;;;;5033746;28;20315;-62
2020/12/19 09:59:27;;;;;;;;;;;27.10;39.30;;;;;;5033227;28;19921;-62
2020/12/19 10:01:52;;;;;;;;;;;27.10;39.40;;;;;;5033321;28;19913;-62
2020/12/19 10:04:18;;;;;;;;;;;27.20;39.40;;;;;;5032677;28;20287;-62
2020/12/19 10:06:43;;;;;;;;;;;27.10;39.30;;;;;;5033276;28;19913;-61
2020/12/19 10:09:09;;;;;;;;;;;27.00;39.40;;;;;;5033396;28;20418;-62
2020/12/19 10:11:34;;;;;;;;;;;27.10;39.40;;;;;;5032541;28;19917;-62
2020/12/19 10:13:59;;;;;;;;;;;27.20;39.30;;;;;;5032961;28;19921;-62
2020/12/19 10:16:25;;;;;;;;;;;27.10;39.30;;;;;;5033466;28;20343;-62
2020/12/19 10:18:50;;;;;;;;;;;27.10;39.40;;;;;;5032953;28;19960;-62
2020/12/19 10:21:16;;;;;;;;;;;27.10;39.40;;;;;;5033102;28;19928;-62
2020/12/19 10:23:41;;;;;;;;;;;27.10;39.50;;;;;;5032866;28;20332;-62
2020/12/19 10:26:09;;;;;;;;;;;27.10;39.30;;;;;;5033005;28;19916;-62
2020/12/19 10:28:37;;;;;;;;;;;27.10;39.30;;;;;;5032308;28;20006;-62
2020/12/19 10:31:03;;;;;;;;;;;27.10;39.40;;;;;;5032771;28;20015;-62
2020/12/19 10:33:28;;;;;;;;;;;27.00;39.40;;;;;;5033152;28;20000;-62
2020/12/19 10:35:54;;;;;;;;;;;27.10;39.30;;;;;;5032914;28;19939;-62
2020/12/19 10:38:20;;;;;;;;;;;27.10;39.20;;;;;;5032637;28;19920;-62
2020/12/19 10:40:45;;;;;;;;;;;27.10;39.40;;;;;;5031533;28;20356;-62
2020/12/19 10:43:11;;;;;;;;;;;27.10;39.40;;;;;;5032385;28;20004;-62
2020/12/19 10:45:36;;;;;;;;;;;27.10;39.30;;;;;;5033092;28;19935;-62
2020/12/19 10:48:02;;;;;;;;;;;27.10;39.30;;;;;;5032355;28;19917;-62
2020/12/19 10:50:27;;;;;;;;;;;27.10;39.40;;;;;;5032516;28;19914;-62
2020/12/19 10:52:53;;;;;;;;;;;27.20;39.30;;;;;;5032689;28;20364;-63
2020/12/19 10:55:18;;;;;;;;;;;27.20;39.20;;;;;;5032555;28;19913;-62
2020/12/19 10:57:43;;;;;;;;;;;27.10;39.30;;;;;;5032549;28;20334;-62
2020/12/19 11:00:09;;;;;;;;;;;27.10;39.20;;;;;;5032260;28;19917;-62
2020/12/19 11:02:34;;;;;;;;;;;27.20;39.20;;;;;;5032418;28;19953;-62
2020/12/19 11:05:00;;;;;;;;;;;27.20;39.20;;;;;;5032508;28;19913;-62
2020/12/19 11:07:25;;;;;;;;;;;27.10;39.20;;;;;;5032029;28;19913;-62
2020/12/19 11:09:51;;;;;;;;;;;27.20;39.20;;;;;;5032215;28;19920;-62
2020/12/19 11:12:16;;;;;;;;;;;27.10;39.20;;;;;;5032175;28;19936;-62
2020/12/19 11:14:42;;;;;;;;;;;27.10;39.20;;;;;;5032653;28;20398;-62
2020/12/19 11:17:07;;;;;;;;;;;27.10;39.30;;;;;;5032003;28;19924;-62
2020/12/19 11:19:33;;;;;;;;;;;27.00;39.40;;;;;;5031932;28;19943;-62
2020/12/19 11:21:58;;;;;;;;;;;27.00;39.40;;;;;;5033542;28;20349;-62
2020/12/19 11:24:24;;;;;;;;;;;27.10;39.30;;;;;;5036102;28;20003;-62
2020/12/19 11:26:49;;;;;;;;;;;27.10;39.20;;;;;;5036500;28;20007;-62
2020/12/19 11:29:15;;;;;;;;;;;27.20;39.20;;;;;;5036366;28;19913;-62
2020/12/19 11:31:42;;;;;;;;;;;27.10;39.20;;;;;;5036402;28;19909;-62
2020/12/19 11:34:07;;;;;;;;;;;27.20;39.30;;;;;;5035963;28;19913;-62
2020/12/19 11:36:38;;;;;;;;;;;27.10;39.20;;;;;;5035604;28;20551;-62
2020/12/19 11:39:11;;;;;;;;;;;27.20;39.10;;;;;;5036108;28;19917;-62
2020/12/19 11:41:39;;;;;;;;;;;27.20;39.00;;;;;;5036177;28;19960;-62
2020/12/19 11:44:05;;;;;;;;;;;27.20;39.10;;;;;;5035996;28;19913;-62
2020/12/19 11:46:30;;;;;;;;;;;27.20;39.20;;;;;;5036241;28;20444;-62
2020/12/19 11:48:56;;;;;;;;;;;27.10;39.20;;;;;;5035912;28;19913;-62
2020/12/19 11:51:25;;;;;;;;;;;27.20;39.30;;;;;;5035675;28;19913;-62
2020/12/19 11:53:50;;;;;;;;;;;27.20;39.30;;;;;;5035571;28;19913;-61
2020/12/19 11:56:16;;;;;;;;;;;27.10;39.20;;;;;;5035539;28;19939;-62
2020/12/19 11:58:41;;;;;;;;;;;27.10;39.20;;;;;;5036182;28;19909;-62
2020/12/19 12:01:07;;;;;;;;;;;27.10;39.30;;;;;;5035918;28;19917;-62
2020/12/19 12:03:32;;;;;;;;;;;27.10;39.30;;;;;;5035085;28;19975;-61
2020/12/19 12:05:58;;;;;;;;;;;27.20;39.20;;;;;;5035971;28;19913;-62
2020/12/19 12:08:23;;;;;;;;;;;27.10;39.30;;;;;;5034989;28;20000;-62
2020/12/19 12:10:49;;;;;;;;;;;27.10;39.20;;;;;;5035382;28;19917;-61
2020/12/19 12:13:14;;;;;;;;;;;27.20;39.30;;;;;;5034974;28;19921;-62
2020/12/19 12:15:39;;;;;;;;;;;27.20;39.20;;;;;;5035352;28;20330;-62
2020/12/19 12:18:05;;;;;;;;;;;27.20;39.10;;;;;;5035397;28;19917;-62
2020/12/19 12:20:30;;;;;;;;;;;27.20;39.20;;;;;;5035581;28;20279;-61
2020/12/19 12:22:56;;;;;;;;;;;27.20;39.20;;;;;;5035081;28;19909;-62
2020/12/19 12:25:21;;;;;;;;;;;27.20;39.20;;;;;;5035395;28;19936;-62
2020/12/19 12:27:47;;;;;;;;;;;27.10;39.30;;;;;;5023993;28;19976;-62
2020/12/19 12:30:12;;;;;;;;;;;27.10;39.20;;;;;;5035517;28;19976;-61
2020/12/19 12:32:38;;;;;;;;;;;27.20;39.10;;;;;;5035085;28;19913;-61
2020/12/19 12:35:03;;;;;;;;;;;27.20;39.20;;;;;;5021371;28;19913;-62
2020/12/19 12:37:29;;;;;;;;;;;27.10;39.20;;;;;;5017432;28;19913;-62
2020/12/19 12:39:54;;;;;;;;;;;27.10;39.30;;;;;;5035235;28;19956;-62
2020/12/19 12:42:21;;;;;;;;;;;27.00;39.40;;;;;;5034682;28;20321;-61
2020/12/19 12:44:46;;;;;;;;;;;27.00;39.30;;;;;;5034816;28;19913;-62
2020/12/19 12:47:12;;;;;;;;;;;27.10;39.40;;;;;;5034814;28;19909;-62
2020/12/19 12:49:37;;;;;;;;;;;27.10;39.40;;;;;;5034837;28;20378;-61
2020/12/19 12:52:03;;;;;;;;;;;27.10;39.40;;;;;;5035089;28;19917;-62
2020/12/19 12:54:28;;;;;;;;;;;27.10;39.30;;;;;;5034642;28;19956;-62
2020/12/19 12:56:54;;;;;;;;;;;27.20;39.30;;;;;;5034638;28;20580;-62
2020/12/19 12:59:19;;;;;;;;;;;27.10;39.20;;;;;;5034066;28;20438;-62
2020/12/19 13:01:44;;;;;;;;;;;27.10;39.20;;;;;;5034439;28;19928;-61
2020/12/19 13:04:10;;;;;;;;;;;27.10;39.20;;;;;;5034389;28;19920;-62
2020/12/19 13:06:37;;;;;;;;;;;27.20;39.20;;;;;;5034548;28;20318;-62
2020/12/19 13:09:03;;;;;;;;;;;27.10;39.20;;;;;;5034184;28;20000;-62
2020/12/19 13:11:28;;;;;;;;;;;27.10;39.30;;;;;;5033883;28;20410;-62
2020/12/19 13:13:54;;;;;;;;;;;27.10;39.40;;;;;;5034723;28;19913;-62
2020/12/19 13:16:19;;;;;;;;;;;27.10;39.80;;;;;;5034249;28;19913;-62
2020/12/19 13:18:45;;;;;;;;;;;27.10;39.20;;;;;;5034272;28;19921;-61
2020/12/19 13:21:10;;;;;;;;;;;27.10;39.30;;;;;;5034267;28;19924;-62
2020/12/19 13:23:36;;;;;;;;;;;27.10;39.20;;;;;;5033875;28;19913;-62
2020/12/19 13:26:01;;;;;;;;;;;27.20;39.20;;;;;;5034080;28;19909;-62
2020/12/19 13:28:30;;;;;;;;;;;27.20;39.20;;;;;;5034232;28;19913;-62
2020/12/19 13:30:56;;;;;;;;;;;27.20;39.20;;;;;;5033825;28;20379;-62
2020/12/19 13:33:21;;;;;;;;;;;27.10;39.20;;;;;;5033994;28;19956;-62
2020/12/19 13:35:47;;;;;;;;;;;27.10;39.30;;;;;;5033805;28;19955;-62
2020/12/19 13:38:12;;;;;;;;;;;27.10;39.20;;;;;;5033939;28;20294;-62
2020/12/19 13:40:38;;;;;;;;;;;27.10;39.20;;;;;;5033836;28;19917;-62
2020/12/19 13:43:03;;;;;;;;;;;27.20;39.10;;;;;;5033650;28;20000;-62
2020/12/19 13:45:29;;;;;;;;;;;27.20;39.40;;;;;;5033537;28;20339;-62
2020/12/19 13:47:54;;;;;;;;;;;27.20;39.10;;;;;;5033469;28;19909;-61
2020/12/19 13:50:20;;;;;;;;;;;27.20;39.10;;;;;;5033998;28;20012;-62
2020/12/19 13:52:45;;;;;;;;;;;27.20;39.10;;;;;;5033597;28;20345;-62
2020/12/19 13:55:11;;;;;;;;;;;27.10;39.20;;;;;;5032912;28;20016;-62
2020/12/19 13:57:37;;;;;;;;;;;27.10;39.20;;;;;;5033798;28;19909;-62
2020/12/19 14:00:06;;;;;;;;;;;27.10;39.20;;;;;;5033361;28;19918;-62
2020/12/19 14:02:32;;;;;;;;;;;27.10;39.20;;;;;;5033307;28;19917;-62
2020/12/19 14:04:57;;;;;;;;;;;27.20;39.10;;;;;;5033262;28;19917;-62
2020/12/19 14:07:22;;;;;;;;;;;27.20;39.10;;;;;;5032977;28;19921;-62
2020/12/19 14:09:48;;;;;;;;;;;27.20;39.10;;;;;;5033473;28;20393;-62